createdAt,value
2018-07-26T00:08:44.817Z,100247.81
2018-07-26T00:11:17.235Z,100252.07
2018-07-26T00:16:32.113Z,100253.81
2018-07-26T00:19:06.111Z,100252.45
2018-07-26T00:21:38.498Z,100259.87
2018-07-26T00:24:23.205Z,100258.90
2018-07-26T00:27:00.459Z,100258.11
2018-07-26T00:29:38.990Z,100266.28
2018-07-26T00:32:12.145Z,100266.27
2018-07-26T00:34:46.702Z,100264.50
2018-07-26T00:40:16.506Z,100266.03
2018-07-26T00:42:48.080Z,100265.81
2018-07-26T00:45:23.505Z,100264.82
2018-07-26T00:48:03.745Z,100265.77
2018-07-26T00:50:36.419Z,100266.52
2018-07-26T00:53:10.217Z,100263.19
2018-07-26T00:55:41.675Z,100265.13
2018-07-26T00:58:11.353Z,100262.41
2018-07-26T01:00:41.838Z,100254.21
2018-07-26T01:03:12.885Z,100260.41
2018-07-26T01:05:54.571Z,100255.52
2018-07-26T01:08:45.299Z,100260.49
2018-07-26T01:11:32.169Z,100260.11
2018-07-26T01:14:03.556Z,100259.88
2018-07-26T01:16:35.669Z,100262.79
2018-07-26T01:19:09.795Z,100261.39
2018-07-26T01:21:41.157Z,100264.51
2018-07-26T01:24:17.541Z,100262.77
2018-07-26T01:26:57.161Z,100264.48
2018-07-26T01:29:30.080Z,100258.63
2018-07-26T01:32:03.083Z,100260.16
2018-07-26T01:34:37.753Z,100264.43
2018-07-26T01:37:08.863Z,100263.66
2018-07-26T01:39:39.861Z,100266.95
2018-07-26T01:42:17.625Z,100262.27
2018-07-26T01:44:48.523Z,100264.61
2018-07-26T01:47:19.255Z,100268.09
2018-07-26T01:49:53.719Z,100269.28
2018-07-26T01:52:24.897Z,100265.76
2018-07-26T01:54:56.837Z,100264.19
2018-07-26T01:57:37.527Z,100266.70
2018-07-26T02:00:08.277Z,100267.09
2018-07-26T02:02:38.143Z,100267.27
2018-07-26T02:05:10.514Z,100274.07
2018-07-26T02:07:40.227Z,100271.70
2018-07-26T02:10:10.864Z,100273.24
2018-07-26T02:12:40.429Z,100274.42
2018-07-26T02:15:09.207Z,100273.63
2018-07-26T02:17:45.974Z,100275.78
2018-07-26T02:20:24.872Z,100274.02
2018-07-26T02:23:04.835Z,100268.15
2018-07-26T02:25:35.874Z,100269.69
2018-07-26T02:28:10.927Z,100266.92
2018-07-26T02:30:41.664Z,100269.38
2018-07-26T02:36:06.125Z,100267.17
2018-07-26T02:38:42.809Z,100270.11
2018-07-26T02:43:54.037Z,100272.83
2018-07-26T02:46:23.822Z,100278.48
2018-07-26T02:54:42.146Z,100279.03
2018-07-26T02:57:20.111Z,100276.52
2018-07-26T02:59:48.727Z,100277.84
2018-07-26T03:02:17.489Z,100283.63
2018-07-26T03:04:48.857Z,100284.78
2018-07-26T03:07:28.926Z,100283.59
2018-07-26T03:09:58.238Z,100280.11
2018-07-26T03:12:30.145Z,100282.02
2018-07-26T03:15:00.043Z,100279.34
2018-07-26T03:17:35.538Z,100277.39
2018-07-26T03:20:06.449Z,100283.56
2018-07-26T03:22:36.503Z,100285.51
2018-07-26T03:25:06.321Z,100290.91
2018-07-26T03:27:36.236Z,100286.83
2018-07-26T03:30:05.465Z,100285.64
2018-07-26T03:32:36.553Z,100287.97
2018-07-26T03:35:07.985Z,100277.27
2018-07-26T03:37:38.760Z,100283.30
2018-07-26T03:40:08.294Z,100283.72
2018-07-26T03:42:42.842Z,100290.70
2018-07-26T03:45:13.703Z,100285.26
2018-07-26T03:47:58.209Z,100287.00
2018-07-26T03:50:28.749Z,100289.55
2018-07-26T03:52:59.221Z,100289.34
2018-07-26T03:55:29.761Z,100291.12
2018-07-26T03:58:09.345Z,100285.51
2018-07-26T04:00:42.386Z,100292.09
2018-07-26T04:03:12.355Z,100289.38
2018-07-26T04:05:41.260Z,100291.50
2018-07-26T04:08:15.289Z,100296.12
2018-07-26T04:10:45.057Z,100294.34
2018-07-26T04:13:15.043Z,100304.28
2018-07-26T04:15:47.930Z,100301.92
2018-07-26T04:18:26.437Z,100302.47
2018-07-26T04:21:00.260Z,100297.99
2018-07-26T04:23:29.451Z,100306.16
2018-07-26T04:25:58.306Z,100301.48
2018-07-26T04:28:27.101Z,100302.67
2018-07-26T04:30:55.900Z,100298.22
2018-07-26T04:33:24.530Z,100296.65
2018-07-26T04:35:53.912Z,100296.09
2018-07-26T04:38:22.637Z,100304.81
2018-07-26T04:40:52.729Z,100300.55
2018-07-26T04:43:24.806Z,100302.89
2018-07-26T04:46:01.991Z,100307.73
2018-07-26T04:48:41.338Z,100307.36
2018-07-26T04:51:13.385Z,100313.64
2018-07-26T04:53:43.753Z,100312.67
2018-07-26T04:56:12.658Z,100310.53
2018-07-26T04:58:47.577Z,100312.67
2018-07-26T05:01:17.202Z,100310.16
2018-07-26T05:03:48.993Z,100315.59
2018-07-26T05:06:17.847Z,100312.12
2018-07-26T05:09:00.449Z,100315.47
2018-07-26T05:11:30.073Z,100318.41
2018-07-26T05:14:00.192Z,100314.16
2018-07-26T05:16:29.231Z,100315.77
2018-07-26T05:18:58.739Z,100317.69
2018-07-26T05:21:29.402Z,100315.69
2018-07-26T05:24:04.307Z,100320.32
2018-07-26T05:26:38.991Z,100324.98
2018-07-26T05:29:27.481Z,100323.62
2018-07-26T05:31:58.826Z,100326.17
2018-07-26T05:34:29.780Z,100329.25
2018-07-26T05:37:04.837Z,100324.44
2018-07-26T05:42:31.888Z,100321.20
2018-07-26T05:45:03.578Z,100328.61
2018-07-26T05:47:54.810Z,100327.08
2018-07-26T05:50:26.585Z,100330.00
2018-07-26T05:52:56.317Z,100327.28
2018-07-26T05:55:25.713Z,100329.20
2018-07-26T05:57:55.099Z,100331.53
2018-07-26T06:00:23.893Z,100329.20
2018-07-26T06:02:52.568Z,100334.09
2018-07-26T06:05:21.297Z,100334.69
2018-07-26T06:07:51.228Z,100338.77
2018-07-26T06:10:20.040Z,100340.12
2018-07-26T06:12:48.659Z,100336.28
2018-07-26T06:15:17.345Z,100340.58
2018-07-26T06:17:51.177Z,100342.36
2018-07-26T06:20:20.165Z,100347.84
2018-07-26T06:22:50.212Z,100345.54
2018-07-26T06:28:14.497Z,100347.58
2018-07-26T06:30:45.537Z,100348.38
2018-07-26T06:33:16.398Z,100350.72
2018-07-26T06:35:52.518Z,100350.75
2018-07-26T06:41:13.861Z,100348.83
2018-07-26T06:43:43.453Z,100352.36
2018-07-26T06:46:14.403Z,100354.34
2018-07-26T06:48:47.771Z,100350.30
2018-07-26T06:51:16.736Z,100349.37
2018-07-26T06:53:48.139Z,100351.60
2018-07-26T06:56:18.090Z,100353.79
2018-07-26T06:58:46.869Z,100357.31
2018-07-26T07:01:16.208Z,100358.14
2018-07-26T07:03:45.795Z,100356.59
2018-07-26T07:06:16.048Z,100353.53
2018-07-26T07:08:45.479Z,100356.08
2018-07-26T07:11:14.922Z,100359.01
2018-07-26T07:13:46.329Z,100360.75
2018-07-26T07:16:17.465Z,100355.77
2018-07-26T07:18:47.509Z,100361.03
2018-07-26T07:21:18.191Z,100360.05
2018-07-26T07:23:53.776Z,100361.83
2018-07-26T07:26:23.090Z,100358.32
2018-07-26T07:28:52.287Z,100353.70
2018-07-26T07:31:22.226Z,100354.91
2018-07-26T07:33:53.770Z,100350.66
2018-07-26T07:36:25.129Z,100353.00
2018-07-26T07:39:00.189Z,100357.52
2018-07-26T07:41:31.978Z,100355.96
2018-07-26T07:44:10.041Z,100363.17
2018-07-26T07:46:39.611Z,100362.98
2018-07-26T07:49:10.902Z,100358.91
2018-07-26T07:51:41.874Z,100359.29
2018-07-26T07:54:13.088Z,100360.67
2018-07-26T07:56:44.125Z,100361.66
2018-07-26T07:59:14.859Z,100361.47
2018-07-26T08:01:46.260Z,100364.59
2018-07-26T08:04:17.371Z,100357.62
2018-07-26T08:06:48.828Z,100361.12
2018-07-26T08:09:24.621Z,100356.05
2018-07-26T08:11:56.627Z,100353.33
2018-07-26T08:14:26.872Z,100355.30
2018-07-26T08:16:59.415Z,100353.55
2018-07-26T08:19:30.427Z,100345.55
2018-07-26T08:21:58.971Z,100348.66
2018-07-26T08:24:27.503Z,100353.75
2018-07-26T08:26:56.108Z,100352.39
2018-07-26T08:29:24.607Z,100353.92
2018-07-26T08:31:53.212Z,100342.83
2018-07-26T08:34:21.679Z,100349.27
2018-07-26T08:36:50.320Z,100353.56
2018-07-26T08:39:18.861Z,100352.20
2018-07-26T08:41:47.923Z,100350.44
2018-07-26T08:44:18.113Z,100352.96
2018-07-26T08:46:47.243Z,100350.41
2018-07-26T08:49:15.858Z,100347.91
2018-07-26T08:51:44.402Z,100351.41
2018-07-26T08:54:13.113Z,100349.84
2018-07-26T08:56:41.590Z,100358.24
2018-07-26T08:59:11.019Z,100350.05
2018-07-26T09:01:39.683Z,100345.35
2018-07-26T09:04:08.175Z,100351.41
2018-07-26T09:06:42.665Z,100348.48
2018-07-26T09:09:12.870Z,100348.45
2018-07-26T09:11:41.521Z,100342.42
2018-07-26T09:14:10.281Z,100338.69
2018-07-26T09:16:38.684Z,100337.28
2018-07-26T09:19:07.899Z,100343.11
2018-07-26T09:21:36.647Z,100340.17
2018-07-26T09:24:05.115Z,100349.35
2018-07-26T09:26:33.609Z,100343.42
2018-07-26T09:29:02.402Z,100337.53
2018-07-26T09:31:30.905Z,100329.89
2018-07-26T09:33:59.469Z,100331.63
2018-07-26T09:36:27.932Z,100326.89
2018-07-26T09:38:56.664Z,100329.39
2018-07-26T09:41:25.313Z,100326.78
2018-07-26T09:43:53.888Z,100333.81
2018-07-26T09:46:22.434Z,100334.37
2018-07-26T09:48:51.329Z,100332.73
2018-07-26T09:51:19.964Z,100327.98
2018-07-26T09:53:48.651Z,100328.31
2018-07-26T09:56:17.255Z,100325.11
2018-07-26T09:58:45.737Z,100327.17
2018-07-26T10:01:19.621Z,100326.92
2018-07-26T10:03:48.125Z,100315.70
2018-07-26T10:06:16.631Z,100325.07
2018-07-26T10:08:45.389Z,100317.36
2018-07-26T10:11:13.874Z,100323.11
2018-07-26T10:13:42.351Z,100317.73
2018-07-26T10:16:10.771Z,100315.24
2018-07-26T10:18:39.347Z,100320.85
2018-07-26T10:21:07.917Z,100316.70
2018-07-26T10:23:36.475Z,100302.27
2018-07-26T10:26:05.609Z,100307.27
2018-07-26T10:28:35.279Z,100307.69
2018-07-26T10:31:03.952Z,100310.12
2018-07-26T10:33:34.071Z,100305.73
2018-07-26T10:36:03.077Z,100308.78
2018-07-26T10:38:31.765Z,100311.63
2018-07-26T10:41:00.437Z,100309.86
2018-07-26T10:43:29.734Z,100309.20
2018-07-26T10:45:58.160Z,100304.61
2018-07-26T10:48:26.649Z,100296.36
2018-07-26T10:50:55.260Z,100292.11
2018-07-26T10:53:23.997Z,100298.11
2018-07-26T10:55:52.568Z,100297.92
2018-07-26T10:58:21.105Z,100284.36
2018-07-26T11:00:49.624Z,100277.35
2018-07-26T11:03:18.336Z,100268.59
2018-07-26T11:05:46.899Z,100269.19
2018-07-26T11:08:15.698Z,100279.06
2018-07-26T11:10:44.239Z,100280.25
2018-07-26T11:13:12.875Z,100275.01
2018-07-26T11:15:41.746Z,100274.08
2018-07-26T11:18:10.371Z,100272.83
2018-07-26T11:20:39.018Z,100275.38
2018-07-26T11:23:08.116Z,100274.37
2018-07-26T11:25:36.601Z,100264.70
2018-07-26T11:28:07.671Z,100257.92
2018-07-26T11:30:37.134Z,100262.83
2018-07-26T11:33:05.792Z,100258.11
2018-07-26T11:35:34.259Z,100263.19
2018-07-26T11:38:02.743Z,100264.89
2018-07-26T11:40:31.372Z,100261.13
2018-07-26T11:42:59.911Z,100264.83
2018-07-26T11:45:28.462Z,100266.81
2018-07-26T11:48:06.405Z,100269.38
2018-07-26T11:50:34.994Z,100261.44
2018-07-26T11:53:03.415Z,100258.47
2018-07-26T11:55:31.095Z,100259.80
2018-07-26T11:58:13.220Z,100253.28
2018-07-26T12:00:41.697Z,100250.94
2018-07-26T12:03:11.041Z,100247.09
2018-07-26T12:05:39.585Z,100247.19
2018-07-26T12:08:08.267Z,100238.09
2018-07-26T12:10:36.705Z,100237.53
2018-07-26T12:13:05.190Z,100235.91
2018-07-26T12:15:33.595Z,100241.49
2018-07-26T12:18:20.790Z,100230.05
2018-07-26T12:20:49.174Z,100228.88
2018-07-26T12:23:17.594Z,100233.52
2018-07-26T12:25:46.221Z,100231.66
2018-07-26T12:28:14.620Z,100235.06
2018-07-26T12:30:42.326Z,100219.41
2018-07-26T12:33:10.928Z,100228.38
2018-07-26T12:35:38.621Z,100228.23
2018-07-26T12:38:06.297Z,100223.45
2018-07-26T12:40:33.958Z,100217.76
2018-07-26T12:43:01.760Z,100222.62
2018-07-26T12:45:29.577Z,100210.41
2018-07-26T12:48:06.702Z,100218.55
2018-07-26T12:50:34.416Z,100206.37
2018-07-26T12:53:02.156Z,100209.45
2018-07-26T12:55:29.795Z,100196.41
2018-07-26T12:57:57.545Z,100197.95
2018-07-26T13:00:25.194Z,100195.97
2018-07-26T13:02:52.866Z,100188.66
2018-07-26T13:05:20.541Z,100197.58
2018-07-26T13:07:48.209Z,100190.05
2018-07-26T13:10:15.928Z,100188.38
2018-07-26T13:12:44.602Z,100189.01
2018-07-26T13:15:13.115Z,100195.02
2018-07-26T13:17:46.793Z,100189.65
2018-07-26T13:20:15.758Z,100182.05
2018-07-26T13:22:44.212Z,100182.55
2018-07-26T13:25:12.721Z,100191.02
2018-07-26T13:27:41.328Z,100192.25
2018-07-26T13:30:10.224Z,100189.93
2018-07-26T13:32:39.320Z,100186.31
2018-07-26T13:35:07.792Z,100175.36
2018-07-26T13:37:36.232Z,100180.97
2018-07-26T13:40:05.315Z,100175.66
2018-07-26T13:42:34.264Z,100171.97
2018-07-26T13:45:02.789Z,100177.21
2018-07-26T13:47:31.538Z,100168.23
2018-07-26T13:50:00.193Z,100167.72
2018-07-26T13:52:28.978Z,100173.36
2018-07-26T13:54:57.523Z,100155.89
2018-07-26T13:57:26.205Z,100157.07
2018-07-26T13:59:54.647Z,100159.63
2018-07-26T14:02:23.272Z,100153.38
2018-07-26T14:04:51.862Z,100151.92
2018-07-26T14:07:20.765Z,100154.55
2018-07-26T14:09:49.641Z,100156.56
2018-07-26T14:12:18.592Z,100157.31
2018-07-26T14:14:47.205Z,100163.77
2018-07-26T14:17:15.789Z,100152.70
2018-07-26T14:19:44.482Z,100152.78
2018-07-26T14:22:13.119Z,100152.36
2018-07-26T14:24:41.682Z,100138.23
2018-07-26T14:27:10.452Z,100131.44
2018-07-26T14:29:39.180Z,100131.53
2018-07-26T14:32:07.702Z,100128.08
2018-07-26T14:35:13.965Z,100135.02
2018-07-26T14:37:42.716Z,100125.03
2018-07-26T14:40:11.252Z,100128.80
2018-07-26T14:42:39.983Z,100124.18
2018-07-26T14:45:08.540Z,100129.46
2018-07-26T14:47:37.190Z,100120.23
2018-07-26T14:50:06.185Z,100125.63
2018-07-26T14:52:34.664Z,100117.66
2018-07-26T14:55:03.188Z,100112.86
2018-07-26T14:57:31.944Z,100108.71
2018-07-26T15:00:00.501Z,100105.80
2018-07-26T15:02:29.168Z,100114.52
2018-07-26T15:04:57.756Z,100111.34
2018-07-26T15:07:27.126Z,100105.44
2018-07-26T15:09:55.719Z,100111.02
2018-07-26T15:12:24.230Z,100111.95
2018-07-26T15:14:53.680Z,100109.39
2018-07-26T15:17:22.340Z,100116.94
2018-07-26T15:19:51.694Z,100106.92
2018-07-26T15:22:20.267Z,100100.85
2018-07-26T15:24:48.803Z,100107.45
2018-07-26T15:27:17.207Z,100111.87
2018-07-26T15:29:45.711Z,100103.76
2018-07-26T15:32:14.566Z,100118.31
2018-07-26T15:34:42.965Z,100114.59
2018-07-26T15:37:11.434Z,100117.30
2018-07-26T15:39:40.006Z,100104.23
2018-07-26T15:42:08.593Z,100105.03
2018-07-26T15:44:37.189Z,100102.40
2018-07-26T15:47:05.795Z,100100.23
2018-07-26T15:49:34.514Z,100091.12
2018-07-26T15:52:03.227Z,100094.89
2018-07-26T15:54:31.714Z,100097.82
2018-07-26T15:57:00.357Z,100096.09
2018-07-26T15:59:28.912Z,100101.97
2018-07-26T16:01:57.721Z,100102.84
2018-07-26T16:04:26.360Z,100113.81
2018-07-26T16:06:54.932Z,100106.58
2018-07-26T16:09:23.771Z,100105.28
2018-07-26T16:11:52.298Z,100111.93
2018-07-26T16:14:21.054Z,100109.94
2018-07-26T16:16:49.669Z,100103.25
2018-07-26T16:19:23.479Z,100106.03
2018-07-26T16:21:52.077Z,100096.12
2018-07-26T16:24:20.604Z,100099.22
2018-07-26T16:26:49.263Z,100096.28
2018-07-26T16:29:28.513Z,100100.14
2018-07-26T16:31:57.425Z,100098.59
2018-07-26T16:34:26.016Z,100106.67
2018-07-26T16:36:55.390Z,100103.58
2018-07-26T16:39:24.040Z,100104.87
2018-07-26T16:41:53.065Z,100098.58
2018-07-26T16:44:22.133Z,100104.09
2018-07-26T16:46:50.903Z,100102.46
2018-07-26T16:49:24.556Z,100102.54
2018-07-26T16:51:53.176Z,100102.21
2018-07-26T16:54:22.121Z,100106.73
2018-07-26T16:56:50.793Z,100100.06
2018-07-26T16:59:24.521Z,100109.59
2018-07-26T17:01:53.298Z,100098.92
2018-07-26T17:04:21.940Z,100108.98
2018-07-26T17:06:51.548Z,100111.98
2018-07-26T17:09:20.584Z,100109.67
2018-07-26T17:11:49.392Z,100113.19
2018-07-26T17:14:19.559Z,100109.36
2018-07-26T17:16:49.397Z,100115.11
2018-07-26T17:19:19.820Z,100113.66
2018-07-26T17:21:48.619Z,100110.48
2018-07-26T17:24:18.710Z,100114.16
2018-07-26T17:26:47.380Z,100113.30
2018-07-26T17:29:15.963Z,100111.66
2018-07-26T17:31:44.764Z,100110.22
2018-07-26T17:34:13.467Z,100111.23
2018-07-26T17:36:42.472Z,100114.84
2018-07-26T17:39:12.188Z,100117.16
2018-07-26T17:41:40.864Z,100117.73
2018-07-26T17:44:09.552Z,100123.15
2018-07-26T17:46:38.374Z,100128.36
2018-07-26T17:49:06.996Z,100124.41
2018-07-26T17:51:35.544Z,100128.27
2018-07-26T17:54:04.093Z,100129.39
2018-07-26T17:56:33.251Z,100131.60
2018-07-26T17:59:01.965Z,100129.98
2018-07-26T18:01:30.621Z,100136.58
2018-07-26T18:03:59.216Z,100133.90
2018-07-26T18:06:27.917Z,100134.61
2018-07-26T18:08:56.632Z,100132.80
2018-07-26T18:11:25.228Z,100132.80
2018-07-26T18:13:54.517Z,100136.34
2018-07-26T18:16:23.771Z,100137.55
2018-07-26T18:18:52.675Z,100138.73
2018-07-26T18:21:21.931Z,100143.47
2018-07-26T18:23:51.711Z,100143.02
2018-07-26T18:26:24.802Z,100147.20
2018-07-26T18:31:47.080Z,100145.52
2018-07-26T18:34:16.107Z,100149.48
2018-07-26T18:36:45.041Z,100145.95
2018-07-26T18:39:19.725Z,100144.39
2018-07-26T18:41:48.693Z,100157.23
2018-07-26T18:44:18.209Z,100161.27
2018-07-26T18:46:48.891Z,100165.97
2018-07-26T18:49:22.668Z,100166.06
2018-07-26T18:51:52.325Z,100173.98
2018-07-26T18:54:21.148Z,100170.11
2018-07-26T18:56:50.213Z,100179.80
2018-07-26T18:59:28.794Z,100173.18
2018-07-26T19:01:57.748Z,100181.23
2018-07-26T19:04:27.605Z,100184.00
2018-07-26T19:06:56.357Z,100189.02
2018-07-26T19:09:25.552Z,100186.57
2018-07-26T19:11:54.259Z,100188.47
2018-07-26T19:14:25.774Z,100200.47
2018-07-26T19:16:55.053Z,100202.23
2018-07-26T19:19:29.289Z,100203.92
2018-07-26T19:21:58.248Z,100206.35
2018-07-26T19:24:26.895Z,100211.48
2018-07-26T19:26:55.453Z,100211.05
2018-07-26T19:29:23.995Z,100221.61
2018-07-26T19:31:53.537Z,100222.94
2018-07-26T19:34:22.535Z,100210.63
2018-07-26T19:36:52.050Z,100215.93
2018-07-26T19:39:21.199Z,100219.33
2018-07-26T19:41:50.263Z,100223.13
2018-07-26T19:44:20.099Z,100225.73
2018-07-26T19:46:49.146Z,100220.52
2018-07-26T19:49:18.081Z,100220.97
2018-07-26T19:51:48.869Z,100223.59
2018-07-26T19:54:19.193Z,100218.53
2018-07-26T19:56:50.346Z,100226.56
2018-07-26T19:59:19.575Z,100223.17
2018-07-26T20:01:48.285Z,100220.44
2018-07-26T20:04:17.589Z,100228.85
2018-07-26T20:06:46.525Z,100223.36
2018-07-26T20:09:20.295Z,100224.55
2018-07-26T20:11:49.356Z,100229.84
2018-07-26T20:14:19.726Z,100227.75
2018-07-26T20:16:49.473Z,100229.72
2018-07-26T20:19:19.374Z,100234.29
2018-07-26T20:21:49.197Z,100232.55
2018-07-26T20:24:18.268Z,100235.39
2018-07-26T20:26:48.696Z,100234.24
2018-07-26T20:29:24.113Z,100235.04
2018-07-26T20:31:55.649Z,100238.20
2018-07-26T20:34:29.065Z,100237.02
2018-07-26T20:36:57.865Z,100239.56
2018-07-26T20:39:27.641Z,100241.58
2018-07-26T20:41:57.120Z,100242.21
2018-07-26T20:44:26.556Z,100242.21
2018-07-26T20:46:56.787Z,100234.56
2018-07-26T20:49:31.243Z,100234.98
2018-07-26T20:52:00.243Z,100235.62
2018-07-26T20:54:32.599Z,100238.58
2018-07-26T20:57:03.697Z,100247.56
2018-07-26T20:59:33.095Z,100241.73
2018-07-26T21:02:04.387Z,100238.61
2018-07-26T21:04:33.215Z,100239.22
2018-07-26T21:07:02.236Z,100242.59
2018-07-26T21:09:30.952Z,100242.81
2018-07-26T21:12:00.989Z,100244.81
2018-07-26T21:14:31.132Z,100245.20
2018-07-26T21:17:00.172Z,100247.39
2018-07-26T21:19:30.497Z,100255.41
2018-07-26T21:22:00.769Z,100257.96
2018-07-26T21:24:29.927Z,100254.65
2018-07-26T21:26:59.551Z,100252.89
2018-07-26T21:29:29.731Z,100254.67
2018-07-26T21:31:58.647Z,100253.71
2018-07-26T21:34:27.567Z,100260.02
2018-07-26T21:36:56.849Z,100253.55
2018-07-26T21:39:30.881Z,100251.63
2018-07-26T21:41:59.786Z,100256.97
2018-07-26T21:44:28.817Z,100253.30
2018-07-26T21:46:57.695Z,100253.31
2018-07-26T21:49:31.908Z,100255.48
2018-07-26T21:52:01.015Z,100249.88
2018-07-26T21:54:29.823Z,100248.53
2018-07-26T21:56:58.711Z,100255.40
2018-07-26T21:59:32.619Z,100258.20
2018-07-26T22:02:01.820Z,100254.87
2018-07-26T22:04:30.881Z,100261.14
2018-07-26T22:07:05.269Z,100253.30
2018-07-26T22:09:35.549Z,100260.73
2018-07-26T22:24:14.583Z,100261.99
2018-07-26T22:32:41.117Z,100257.77
2018-07-26T22:35:10.225Z,100261.98
2018-07-26T22:37:39.029Z,100255.02
2018-07-26T22:40:08.013Z,100252.27
2018-07-26T22:42:38.687Z,100254.63
2018-07-26T22:45:08.123Z,100248.78
2018-07-26T22:47:37.344Z,100253.84
2018-07-26T22:50:07.090Z,100254.83
2018-07-26T22:52:37.235Z,100255.20
2018-07-26T22:55:06.253Z,100255.00
2018-07-26T22:57:36.263Z,100264.01
2018-07-26T23:00:15.153Z,100265.98
2018-07-26T23:02:44.986Z,100262.86
2018-07-26T23:05:15.758Z,100260.53
2018-07-26T23:08:09.010Z,100261.74
2018-07-26T23:16:38.761Z,100261.97
2018-07-26T23:19:09.148Z,100261.00
2018-07-26T23:21:45.511Z,100266.30
2018-07-26T23:24:24.301Z,100264.94
2018-07-26T23:29:52.518Z,100262.81
2018-07-26T23:35:00.777Z,100255.39
2018-07-26T23:37:30.628Z,100255.98
2018-07-26T23:40:00.693Z,100253.45
2018-07-26T23:42:32.347Z,100257.16
2018-07-26T23:45:07.192Z,100249.16
2018-07-26T23:47:37.854Z,100251.30
2018-07-26T23:50:21.628Z,100254.03
2018-07-26T23:53:00.156Z,100259.89
2018-07-26T23:55:33.988Z,100259.72
2018-07-26T23:58:05.299Z,100258.53
